sensor_id;sensor_type;location;lat;lon;timestamp;temperature;humidity
5560;DHT22;2803;47.916;8.074;2023-02-28T00:01:20;-0.50;99.90
5560;DHT22;2803;47.916;8.074;2023-02-28T00:03:47;-0.70;99.90
5560;DHT22;2803;47.916;8.074;2023-02-28T00:06:14;-1.00;99.90
5560;DHT22;2803;47.916;8.074;2023-02-28T00:08:40;-0.60;99.90
5560;DHT22;2803;47.916;8.074;2023-02-28T00:11:10;-0.30;99.90
5560;DHT22;2803;47.916;8.074;2023-02-28T00:13:39;-0.20;99.90
5560;DHT22;2803;47.916;8.074;2023-02-28T00:16:08;-0.10;99.90
5560;DHT22;2803;47.916;8.074;2023-02-28T00:18:35;-0.70;99.90
5560;DHT22;2803;47.916;8.074;2023-02-28T00:21:02;-0.90;99.90
5560;DHT22;2803;47.916;8.074;2023-02-28T00:23:29;-1.00;99.90
5560;DHT22;2803;47.916;8.074;2023-02-28T00:25:56;-0.80;99.90
5560;DHT22;2803;47.916;8.074;2023-02-28T00:28:24;-0.90;99.90
5560;DHT22;2803;47.916;8.074;2023-02-28T00:30:51;-1.20;99.90
5560;DHT22;2803;47.916;8.074;2023-02-28T00:33:18;-1.10;99.90
5560;DHT22;2803;47.916;8.074;2023-02-28T00:35:44;-1.40;99.90
5560;DHT22;2803;47.916;8.074;2023-02-28T00:38:12;-1.20;99.90
5560;DHT22;2803;47.916;8.074;2023-02-28T00:40:38;-1.10;99.90
5560;DHT22;2803;47.916;8.074;2023-02-28T00:43:05;-0.80;99.90
5560;DHT22;2803;47.916;8.074;2023-02-28T00:45:33;-0.80;99.90
5560;DHT22;2803;47.916;8.074;2023-02-28T00:47:59;-0.60;99.90
5560;DHT22;2803;47.916;8.074;2023-02-28T00:50:26;-0.50;99.90
5560;DHT22;2803;47.916;8.074;2023-02-28T00:52:53;-0.90;99.90
5560;DHT22;2803;47.916;8.074;2023-02-28T00:55:20;-1.00;99.90
5560;DHT22;2803;47.916;8.074;2023-02-28T00:57:46;-0.70;99.90
5560;DHT22;2803;47.916;8.074;2023-02-28T01:00:13;-0.50;99.90
5560;DHT22;2803;47.916;8.074;2023-02-28T01:02:41;-0.80;99.90
5560;DHT22;2803;47.916;8.074;2023-02-28T01:05:09;-0.70;99.90
5560;DHT22;2803;47.916;8.074;2023-02-28T01:07:36;-0.70;99.90
5560;DHT22;2803;47.916;8.074;2023-02-28T01:10:04;-0.90;99.90
5560;DHT22;2803;47.916;8.074;2023-02-28T01:12:30;-0.90;99.90
5560;DHT22;2803;47.916;8.074;2023-02-28T01:14:57;-1.40;99.90
5560;DHT22;2803;47.916;8.074;2023-02-28T01:17:24;-1.50;99.90
5560;DHT22;2803;47.916;8.074;2023-02-28T01:19:54;-1.40;99.90
5560;DHT22;2803;47.916;8.074;2023-02-28T01:22:21;-1.10;99.90
5560;DHT22;2803;47.916;8.074;2023-02-28T01:24:48;-0.90;99.90
5560;DHT22;2803;47.916;8.074;2023-02-28T01:27:14;-1.20;99.90
5560;DHT22;2803;47.916;8.074;2023-02-28T01:29:41;-1.20;99.90
5560;DHT22;2803;47.916;8.074;2023-02-28T01:32:08;-0.80;99.90
5560;DHT22;2803;47.916;8.074;2023-02-28T01:34:34;-0.80;99.90
5560;DHT22;2803;47.916;8.074;2023-02-28T01:37:02;-0.50;99.90
5560;DHT22;2803;47.916;8.074;2023-02-28T01:39:29;-0.60;99.90
5560;DHT22;2803;47.916;8.074;2023-02-28T01:41:56;-0.80;99.90
5560;DHT22;2803;47.916;8.074;2023-02-28T01:47:19;-1.10;99.90
5560;DHT22;2803;47.916;8.074;2023-02-28T01:49:47;-1.00;99.90
5560;DHT22;2803;47.916;8.074;2023-02-28T01:52:15;-0.90;99.90
5560;DHT22;2803;47.916;8.074;2023-02-28T01:54:48;-1.20;99.90
5560;DHT22;2803;47.916;8.074;2023-02-28T01:57:20;-0.90;99.90
5560;DHT22;2803;47.916;8.074;2023-02-28T01:59:53;-1.00;99.90
5560;DHT22;2803;47.916;8.074;2023-02-28T02:02:22;-0.90;99.90
5560;DHT22;2803;47.916;8.074;2023-02-28T02:04:53;-1.00;99.90
5560;DHT22;2803;47.916;8.074;2023-02-28T02:07:23;-0.70;99.90
5560;DHT22;2803;47.916;8.074;2023-02-28T02:10:00;-0.70;99.90
5560;DHT22;2803;47.916;8.074;2023-02-28T02:12:35;-0.30;99.90
5560;DHT22;2803;47.916;8.074;2023-02-28T02:15:12;-0.60;99.90
5560;DHT22;2803;47.916;8.074;2023-02-28T02:17:44;-0.90;99.90
5560;DHT22;2803;47.916;8.074;2023-02-28T02:20:32;-0.80;99.90
5560;DHT22;2803;47.916;8.074;2023-02-28T02:26:15;-1.00;99.90
5560;DHT22;2803;47.916;8.074;2023-02-28T02:29:01;-1.00;99.90
5560;DHT22;2803;47.916;8.074;2023-02-28T02:31:46;-1.00;99.90
5560;DHT22;2803;47.916;8.074;2023-02-28T02:34:29;-0.90;99.90
5560;DHT22;2803;47.916;8.074;2023-02-28T02:37:08;-0.80;99.90
5560;DHT22;2803;47.916;8.074;2023-02-28T02:39:44;-0.40;99.90
5560;DHT22;2803;47.916;8.074;2023-02-28T02:42:16;-0.50;99.90
5560;DHT22;2803;47.916;8.074;2023-02-28T02:44:47;-0.10;99.90
5560;DHT22;2803;47.916;8.074;2023-02-28T02:47:17;-0.10;99.90
5560;DHT22;2803;47.916;8.074;2023-02-28T02:49:49;-0.80;99.90
5560;DHT22;2803;47.916;8.074;2023-02-28T02:52:20;-1.30;99.90
5560;DHT22;2803;47.916;8.074;2023-02-28T02:54:50;-1.30;99.90
5560;DHT22;2803;47.916;8.074;2023-02-28T02:57:22;-0.60;99.90
5560;DHT22;2803;47.916;8.074;2023-02-28T02:59:51;-0.50;99.90
5560;DHT22;2803;47.916;8.074;2023-02-28T03:02:21;-0.70;99.90
5560;DHT22;2803;47.916;8.074;2023-02-28T03:04:52;-0.40;99.90
5560;DHT22;2803;47.916;8.074;2023-02-28T03:07:19;-0.30;99.90
5560;DHT22;2803;47.916;8.074;2023-02-28T03:09:50;-0.60;99.90
5560;DHT22;2803;47.916;8.074;2023-02-28T03:12:18;-0.40;99.90
5560;DHT22;2803;47.916;8.074;2023-02-28T03:14:55;-0.80;99.90
5560;DHT22;2803;47.916;8.074;2023-02-28T03:17:40;-1.00;99.90
5560;DHT22;2803;47.916;8.074;2023-02-28T03:20:18;-0.90;99.90
5560;DHT22;2803;47.916;8.074;2023-02-28T03:22:52;-0.30;99.90
5560;DHT22;2803;47.916;8.074;2023-02-28T03:25:32;-0.40;99.90
5560;DHT22;2803;47.916;8.074;2023-02-28T03:28:07;-0.80;99.90
5560;DHT22;2803;47.916;8.074;2023-02-28T03:30:41;-0.90;99.90
5560;DHT22;2803;47.916;8.074;2023-02-28T03:33:15;-0.50;99.90
5560;DHT22;2803;47.916;8.074;2023-02-28T03:35:48;0.00;99.90
5560;DHT22;2803;47.916;8.074;2023-02-28T03:38:21;0.20;99.90
5560;DHT22;2803;47.916;8.074;2023-02-28T03:40:51;0.00;99.90
5560;DHT22;2803;47.916;8.074;2023-02-28T03:43:23;-0.30;99.90
5560;DHT22;2803;47.916;8.074;2023-02-28T03:45:52;0.10;99.90
5560;DHT22;2803;47.916;8.074;2023-02-28T03:48:23;-0.30;99.90
5560;DHT22;2803;47.916;8.074;2023-02-28T03:50:56;-0.20;99.90
5560;DHT22;2803;47.916;8.074;2023-02-28T03:53:27;-0.40;99.90
5560;DHT22;2803;47.916;8.074;2023-02-28T03:55:59;-0.40;99.90
5560;DHT22;2803;47.916;8.074;2023-02-28T03:58:30;-0.20;99.90
5560;DHT22;2803;47.916;8.074;2023-02-28T04:01:03;-0.20;99.90
5560;DHT22;2803;47.916;8.074;2023-02-28T04:03:34;-0.40;99.90
5560;DHT22;2803;47.916;8.074;2023-02-28T04:06:02;0.00;99.90
5560;DHT22;2803;47.916;8.074;2023-02-28T04:08:29;-0.10;99.90
5560;DHT22;2803;47.916;8.074;2023-02-28T04:11:00;-0.30;99.90
5560;DHT22;2803;47.916;8.074;2023-02-28T04:13:27;-0.50;99.90
5560;DHT22;2803;47.916;8.074;2023-02-28T04:15:54;-0.40;99.90
5560;DHT22;2803;47.916;8.074;2023-02-28T04:18:20;-0.70;99.90
5560;DHT22;2803;47.916;8.074;2023-02-28T04:20:47;-0.70;99.90
5560;DHT22;2803;47.916;8.074;2023-02-28T04:23:15;-0.70;99.90
5560;DHT22;2803;47.916;8.074;2023-02-28T04:25:41;-1.00;99.90
5560;DHT22;2803;47.916;8.074;2023-02-28T04:28:09;-0.60;99.90
5560;DHT22;2803;47.916;8.074;2023-02-28T04:30:37;-0.90;99.90
5560;DHT22;2803;47.916;8.074;2023-02-28T04:33:04;-1.10;99.90
5560;DHT22;2803;47.916;8.074;2023-02-28T04:35:31;-1.20;99.90
5560;DHT22;2803;47.916;8.074;2023-02-28T04:37:57;-1.20;99.90
5560;DHT22;2803;47.916;8.074;2023-02-28T04:40:25;-1.10;99.90
5560;DHT22;2803;47.916;8.074;2023-02-28T04:42:52;-0.60;99.90
5560;DHT22;2803;47.916;8.074;2023-02-28T04:45:18;-0.60;99.90
5560;DHT22;2803;47.916;8.074;2023-02-28T04:47:45;-1.10;99.90
5560;DHT22;2803;47.916;8.074;2023-02-28T04:50:11;-1.00;99.90
5560;DHT22;2803;47.916;8.074;2023-02-28T04:52:38;-0.80;99.90
5560;DHT22;2803;47.916;8.074;2023-02-28T04:55:05;-0.10;99.90
5560;DHT22;2803;47.916;8.074;2023-02-28T04:57:33;-0.20;99.90
5560;DHT22;2803;47.916;8.074;2023-02-28T05:00:00;-0.10;99.90
5560;DHT22;2803;47.916;8.074;2023-02-28T05:02:30;0.00;99.90
5560;DHT22;2803;47.916;8.074;2023-02-28T05:04:57;0.30;99.90
5560;DHT22;2803;47.916;8.074;2023-02-28T05:07:25;0.50;99.90
5560;DHT22;2803;47.916;8.074;2023-02-28T05:09:52;0.50;99.90
5560;DHT22;2803;47.916;8.074;2023-02-28T05:12:18;0.80;99.90
5560;DHT22;2803;47.916;8.074;2023-02-28T05:14:46;-0.20;99.90
5560;DHT22;2803;47.916;8.074;2023-02-28T05:17:13;-0.70;99.90
5560;DHT22;2803;47.916;8.074;2023-02-28T05:19:39;-0.50;99.90
5560;DHT22;2803;47.916;8.074;2023-02-28T05:22:13;-0.30;99.90
5560;DHT22;2803;47.916;8.074;2023-02-28T05:24:40;-1.10;99.90
5560;DHT22;2803;47.916;8.074;2023-02-28T05:27:08;-1.00;99.90
5560;DHT22;2803;47.916;8.074;2023-02-28T05:29:35;-1.20;99.90
5560;DHT22;2803;47.916;8.074;2023-02-28T05:32:09;-0.80;99.90
5560;DHT22;2803;47.916;8.074;2023-02-28T05:34:36;-1.30;99.90
5560;DHT22;2803;47.916;8.074;2023-02-28T05:37:03;-1.00;99.90
5560;DHT22;2803;47.916;8.074;2023-02-28T05:39:29;-1.20;99.90
5560;DHT22;2803;47.916;8.074;2023-02-28T05:41:56;-0.70;99.90
5560;DHT22;2803;47.916;8.074;2023-02-28T05:44:23;-0.50;99.90
5560;DHT22;2803;47.916;8.074;2023-02-28T05:46:50;-0.60;99.90
5560;DHT22;2803;47.916;8.074;2023-02-28T05:49:18;-0.50;99.90
5560;DHT22;2803;47.916;8.074;2023-02-28T05:51:45;-0.50;99.90
5560;DHT22;2803;47.916;8.074;2023-02-28T05:54:11;-0.50;99.90
5560;DHT22;2803;47.916;8.074;2023-02-28T05:56:38;-0.40;99.90
5560;DHT22;2803;47.916;8.074;2023-02-28T05:59:06;0.20;99.90
5560;DHT22;2803;47.916;8.074;2023-02-28T06:01:35;-0.10;99.90
5560;DHT22;2803;47.916;8.074;2023-02-28T06:04:03;-0.10;99.90
5560;DHT22;2803;47.916;8.074;2023-02-28T06:06:32;-0.40;99.90
5560;DHT22;2803;47.916;8.074;2023-02-28T06:09:00;-0.50;99.90
5560;DHT22;2803;47.916;8.074;2023-02-28T06:11:27;-0.30;99.90
5560;DHT22;2803;47.916;8.074;2023-02-28T06:13:54;-0.80;99.90
5560;DHT22;2803;47.916;8.074;2023-02-28T06:16:22;-0.60;99.90
5560;DHT22;2803;47.916;8.074;2023-02-28T06:18:49;-0.50;99.90
5560;DHT22;2803;47.916;8.074;2023-02-28T06:21:16;-0.80;99.90
5560;DHT22;2803;47.916;8.074;2023-02-28T06:23:44;-1.10;99.90
5560;DHT22;2803;47.916;8.074;2023-02-28T06:26:10;-0.90;99.90
5560;DHT22;2803;47.916;8.074;2023-02-28T06:28:37;-1.20;99.90
5560;DHT22;2803;47.916;8.074;2023-02-28T06:31:08;-1.10;99.90
5560;DHT22;2803;47.916;8.074;2023-02-28T06:33:35;-1.00;99.90
5560;DHT22;2803;47.916;8.074;2023-02-28T06:36:02;-1.10;99.90
5560;DHT22;2803;47.916;8.074;2023-02-28T06:38:29;-1.50;99.90
5560;DHT22;2803;47.916;8.074;2023-02-28T06:40:58;-1.40;99.90
5560;DHT22;2803;47.916;8.074;2023-02-28T06:43:27;-1.50;99.90
5560;DHT22;2803;47.916;8.074;2023-02-28T06:45:55;-1.20;99.90
5560;DHT22;2803;47.916;8.074;2023-02-28T06:48:22;-1.50;99.90
5560;DHT22;2803;47.916;8.074;2023-02-28T06:50:49;-1.60;99.90
5560;DHT22;2803;47.916;8.074;2023-02-28T06:53:16;-1.60;99.90
5560;DHT22;2803;47.916;8.074;2023-02-28T06:55:42;-1.30;99.90
5560;DHT22;2803;47.916;8.074;2023-02-28T06:58:10;-0.70;99.90
5560;DHT22;2803;47.916;8.074;2023-02-28T07:00:44;-0.80;99.90
5560;DHT22;2803;47.916;8.074;2023-02-28T07:03:12;-1.20;99.90
5560;DHT22;2803;47.916;8.074;2023-02-28T07:05:40;-1.20;99.90
5560;DHT22;2803;47.916;8.074;2023-02-28T07:08:07;-1.50;99.90
5560;DHT22;2803;47.916;8.074;2023-02-28T07:10:37;-1.10;99.90
5560;DHT22;2803;47.916;8.074;2023-02-28T07:13:05;-0.90;99.90
5560;DHT22;2803;47.916;8.074;2023-02-28T07:15:33;-1.30;99.90
5560;DHT22;2803;47.916;8.074;2023-02-28T07:17:59;-1.50;99.90
5560;DHT22;2803;47.916;8.074;2023-02-28T07:20:27;-1.40;99.90
5560;DHT22;2803;47.916;8.074;2023-02-28T07:22:53;-1.50;99.90
5560;DHT22;2803;47.916;8.074;2023-02-28T07:25:22;-1.70;99.90
5560;DHT22;2803;47.916;8.074;2023-02-28T07:27:49;-1.30;99.90
5560;DHT22;2803;47.916;8.074;2023-02-28T07:30:16;-1.30;99.90
5560;DHT22;2803;47.916;8.074;2023-02-28T07:32:45;-1.40;99.90
5560;DHT22;2803;47.916;8.074;2023-02-28T07:35:12;-1.30;99.90
5560;DHT22;2803;47.916;8.074;2023-02-28T07:37:40;-1.50;99.90
5560;DHT22;2803;47.916;8.074;2023-02-28T07:40:10;-1.60;99.90
5560;DHT22;2803;47.916;8.074;2023-02-28T07:42:38;-1.90;99.90
5560;DHT22;2803;47.916;8.074;2023-02-28T07:45:05;-1.40;99.90
5560;DHT22;2803;47.916;8.074;2023-02-28T07:47:33;-1.60;99.90
5560;DHT22;2803;47.916;8.074;2023-02-28T07:50:01;-1.60;99.90
5560;DHT22;2803;47.916;8.074;2023-02-28T07:52:28;-1.70;99.90
5560;DHT22;2803;47.916;8.074;2023-02-28T07:54:55;-1.20;99.90
5560;DHT22;2803;47.916;8.074;2023-02-28T07:57:22;-0.90;99.90
5560;DHT22;2803;47.916;8.074;2023-02-28T07:59:48;-0.80;99.90
5560;DHT22;2803;47.916;8.074;2023-02-28T08:02:17;-1.00;99.90
5560;DHT22;2803;47.916;8.074;2023-02-28T08:04:45;-1.10;99.90
5560;DHT22;2803;47.916;8.074;2023-02-28T08:07:14;-1.10;99.90
5560;DHT22;2803;47.916;8.074;2023-02-28T08:09:43;-0.90;99.90
5560;DHT22;2803;47.916;8.074;2023-02-28T08:12:11;-0.70;99.90
5560;DHT22;2803;47.916;8.074;2023-02-28T08:14:38;-0.60;99.90
5560;DHT22;2803;47.916;8.074;2023-02-28T08:17:05;-0.30;99.90
5560;DHT22;2803;47.916;8.074;2023-02-28T08:19:32;-0.10;99.90
5560;DHT22;2803;47.916;8.074;2023-02-28T08:21:58;-0.50;99.90
5560;DHT22;2803;47.916;8.074;2023-02-28T08:24:26;-0.50;99.90
5560;DHT22;2803;47.916;8.074;2023-02-28T08:26:53;-0.90;99.90
5560;DHT22;2803;47.916;8.074;2023-02-28T08:29:21;-0.90;99.90
5560;DHT22;2803;47.916;8.074;2023-02-28T08:31:50;-0.40;99.90
5560;DHT22;2803;47.916;8.074;2023-02-28T08:34:17;0.00;99.90
5560;DHT22;2803;47.916;8.074;2023-02-28T08:36:44;-0.10;99.90
5560;DHT22;2803;47.916;8.074;2023-02-28T08:39:11;-0.20;99.90
5560;DHT22;2803;47.916;8.074;2023-02-28T08:41:39;-0.30;99.90
5560;DHT22;2803;47.916;8.074;2023-02-28T08:44:07;-0.10;99.90
5560;DHT22;2803;47.916;8.074;2023-02-28T08:46:34;-0.30;99.90
5560;DHT22;2803;47.916;8.074;2023-02-28T08:49:01;-1.00;99.90
5560;DHT22;2803;47.916;8.074;2023-02-28T08:51:29;-0.90;99.90
5560;DHT22;2803;47.916;8.074;2023-02-28T08:53:59;-0.90;99.90
5560;DHT22;2803;47.916;8.074;2023-02-28T08:56:28;-1.10;99.90
5560;DHT22;2803;47.916;8.074;2023-02-28T08:58:57;-1.30;99.90
5560;DHT22;2803;47.916;8.074;2023-02-28T09:01:27;-1.20;99.90
5560;DHT22;2803;47.916;8.074;2023-02-28T09:03:55;-0.70;99.90
5560;DHT22;2803;47.916;8.074;2023-02-28T09:06:24;-0.60;99.90
5560;DHT22;2803;47.916;8.074;2023-02-28T09:08:56;-0.50;99.90
5560;DHT22;2803;47.916;8.074;2023-02-28T09:11:26;-0.10;99.90
5560;DHT22;2803;47.916;8.074;2023-02-28T09:13:55;-0.60;99.90
5560;DHT22;2803;47.916;8.074;2023-02-28T09:16:24;-0.70;99.90
5560;DHT22;2803;47.916;8.074;2023-02-28T09:18:51;-0.80;99.90
5560;DHT22;2803;47.916;8.074;2023-02-28T09:21:19;-0.40;99.90
5560;DHT22;2803;47.916;8.074;2023-02-28T09:23:47;-0.10;99.90
5560;DHT22;2803;47.916;8.074;2023-02-28T09:26:16;0.00;99.90
5560;DHT22;2803;47.916;8.074;2023-02-28T09:28:43;-0.10;99.90
5560;DHT22;2803;47.916;8.074;2023-02-28T09:31:14;0.40;99.90
5560;DHT22;2803;47.916;8.074;2023-02-28T09:33:46;-0.60;99.90
5560;DHT22;2803;47.916;8.074;2023-02-28T09:36:13;-0.80;99.90
5560;DHT22;2803;47.916;8.074;2023-02-28T09:38:40;-0.70;99.90
5560;DHT22;2803;47.916;8.074;2023-02-28T09:41:12;-0.10;99.90
5560;DHT22;2803;47.916;8.074;2023-02-28T09:43:42;0.40;99.90
5560;DHT22;2803;47.916;8.074;2023-02-28T09:46:22;0.20;99.90
5560;DHT22;2803;47.916;8.074;2023-02-28T09:48:52;0.20;99.90
5560;DHT22;2803;47.916;8.074;2023-02-28T09:51:32;0.00;99.90
5560;DHT22;2803;47.916;8.074;2023-02-28T09:54:01;0.00;99.90
5560;DHT22;2803;47.916;8.074;2023-02-28T09:56:36;-0.30;99.90
5560;DHT22;2803;47.916;8.074;2023-02-28T09:59:09;0.00;99.90
5560;DHT22;2803;47.916;8.074;2023-02-28T10:01:44;0.10;99.90
5560;DHT22;2803;47.916;8.074;2023-02-28T10:04:16;0.30;99.90
5560;DHT22;2803;47.916;8.074;2023-02-28T10:06:51;0.00;99.90
5560;DHT22;2803;47.916;8.074;2023-02-28T10:09:22;0.00;99.90
5560;DHT22;2803;47.916;8.074;2023-02-28T10:11:51;0.10;99.90
5560;DHT22;2803;47.916;8.074;2023-02-28T10:14:22;0.00;99.90
5560;DHT22;2803;47.916;8.074;2023-02-28T10:16:54;0.20;99.90
5560;DHT22;2803;47.916;8.074;2023-02-28T10:19:27;0.30;99.90
5560;DHT22;2803;47.916;8.074;2023-02-28T10:22:01;0.40;99.90
5560;DHT22;2803;47.916;8.074;2023-02-28T10:24:34;0.90;99.90
5560;DHT22;2803;47.916;8.074;2023-02-28T10:27:16;1.30;99.90
5560;DHT22;2803;47.916;8.074;2023-02-28T10:29:47;1.20;99.90
5560;DHT22;2803;47.916;8.074;2023-02-28T10:32:19;1.10;99.90
5560;DHT22;2803;47.916;8.074;2023-02-28T10:34:51;0.90;99.90
5560;DHT22;2803;47.916;8.074;2023-02-28T10:37:20;0.90;99.90
5560;DHT22;2803;47.916;8.074;2023-02-28T10:39:47;0.80;99.90
5560;DHT22;2803;47.916;8.074;2023-02-28T10:42:25;0.70;99.90
5560;DHT22;2803;47.916;8.074;2023-02-28T10:45:11;0.80;99.90
5560;DHT22;2803;47.916;8.074;2023-02-28T10:47:51;0.90;99.90
5560;DHT22;2803;47.916;8.074;2023-02-28T10:50:35;0.50;99.90
5560;DHT22;2803;47.916;8.074;2023-02-28T10:53:14;0.60;99.90
5560;DHT22;2803;47.916;8.074;2023-02-28T10:55:43;0.70;99.90
5560;DHT22;2803;47.916;8.074;2023-02-28T10:58:26;0.70;99.90
5560;DHT22;2803;47.916;8.074;2023-02-28T11:00:54;0.20;99.90
5560;DHT22;2803;47.916;8.074;2023-02-28T11:03:29;0.90;99.90
5560;DHT22;2803;47.916;8.074;2023-02-28T11:05:57;0.40;99.90
5560;DHT22;2803;47.916;8.074;2023-02-28T11:08:27;0.20;99.90
5560;DHT22;2803;47.916;8.074;2023-02-28T11:10:57;0.60;99.90
5560;DHT22;2803;47.916;8.074;2023-02-28T11:13:33;0.80;99.90
5560;DHT22;2803;47.916;8.074;2023-02-28T11:16:03;1.00;99.90
5560;DHT22;2803;47.916;8.074;2023-02-28T11:18:38;0.50;99.90
5560;DHT22;2803;47.916;8.074;2023-02-28T11:21:09;0.70;99.90
5560;DHT22;2803;47.916;8.074;2023-02-28T11:23:40;0.50;99.90
5560;DHT22;2803;47.916;8.074;2023-02-28T11:26:08;0.80;99.90
5560;DHT22;2803;47.916;8.074;2023-02-28T11:28:38;1.00;99.90
5560;DHT22;2803;47.916;8.074;2023-02-28T11:31:17;1.30;99.90
5560;DHT22;2803;47.916;8.074;2023-02-28T11:33:48;0.80;99.90
5560;DHT22;2803;47.916;8.074;2023-02-28T11:36:19;1.50;99.90
5560;DHT22;2803;47.916;8.074;2023-02-28T11:38:50;1.60;99.90
5560;DHT22;2803;47.916;8.074;2023-02-28T11:41:30;0.50;99.90
5560;DHT22;2803;47.916;8.074;2023-02-28T11:44:15;0.20;99.90
5560;DHT22;2803;47.916;8.074;2023-02-28T11:46:49;0.60;99.90
5560;DHT22;2803;47.916;8.074;2023-02-28T11:49:25;0.40;99.90
5560;DHT22;2803;47.916;8.074;2023-02-28T11:52:00;0.50;99.90
5560;DHT22;2803;47.916;8.074;2023-02-28T11:54:50;1.10;99.90
5560;DHT22;2803;47.916;8.074;2023-02-28T11:57:33;0.70;99.90
5560;DHT22;2803;47.916;8.074;2023-02-28T12:00:08;1.00;99.90
5560;DHT22;2803;47.916;8.074;2023-02-28T12:02:54;0.80;99.90
5560;DHT22;2803;47.916;8.074;2023-02-28T12:05:32;0.70;99.90
5560;DHT22;2803;47.916;8.074;2023-02-28T12:08:09;0.70;99.90
5560;DHT22;2803;47.916;8.074;2023-02-28T12:10:52;0.70;99.90
5560;DHT22;2803;47.916;8.074;2023-02-28T12:13:23;0.70;99.90
5560;DHT22;2803;47.916;8.074;2023-02-28T12:18:51;1.60;99.90
5560;DHT22;2803;47.916;8.074;2023-02-28T12:21:31;1.80;99.90
5560;DHT22;2803;47.916;8.074;2023-02-28T12:24:10;2.30;99.90
5560;DHT22;2803;47.916;8.074;2023-02-28T12:26:41;1.90;99.90
5560;DHT22;2803;47.916;8.074;2023-02-28T12:29:14;1.10;99.90
5560;DHT22;2803;47.916;8.074;2023-02-28T12:31:46;1.20;99.90
5560;DHT22;2803;47.916;8.074;2023-02-28T12:34:18;1.50;99.90
5560;DHT22;2803;47.916;8.074;2023-02-28T12:36:49;1.60;99.90
5560;DHT22;2803;47.916;8.074;2023-02-28T12:39:23;1.60;99.90
5560;DHT22;2803;47.916;8.074;2023-02-28T12:41:55;2.00;99.90
5560;DHT22;2803;47.916;8.074;2023-02-28T12:44:28;2.30;99.90
5560;DHT22;2803;47.916;8.074;2023-02-28T12:47:00;2.20;99.90
5560;DHT22;2803;47.916;8.074;2023-02-28T12:49:32;1.50;99.90
5560;DHT22;2803;47.916;8.074;2023-02-28T12:52:02;1.40;99.90
5560;DHT22;2803;47.916;8.074;2023-02-28T12:54:32;1.60;99.90
5560;DHT22;2803;47.916;8.074;2023-02-28T12:57:08;1.90;99.90
5560;DHT22;2803;47.916;8.074;2023-02-28T12:59:40;1.90;99.90
5560;DHT22;2803;47.916;8.074;2023-02-28T13:02:22;2.10;99.90
5560;DHT22;2803;47.916;8.074;2023-02-28T13:05:06;2.20;99.90
5560;DHT22;2803;47.916;8.074;2023-02-28T13:07:52;2.20;99.90
5560;DHT22;2803;47.916;8.074;2023-02-28T13:10:23;2.10;99.90
5560;DHT22;2803;47.916;8.074;2023-02-28T13:12:51;1.80;99.90
5560;DHT22;2803;47.916;8.074;2023-02-28T13:15:22;1.30;99.90
5560;DHT22;2803;47.916;8.074;2023-02-28T13:17:51;1.10;99.90
5560;DHT22;2803;47.916;8.074;2023-02-28T13:20:20;1.20;99.90
5560;DHT22;2803;47.916;8.074;2023-02-28T13:22:51;1.30;99.90
5560;DHT22;2803;47.916;8.074;2023-02-28T13:31:13;1.60;99.90
5560;DHT22;2803;47.916;8.074;2023-02-28T13:36:37;1.50;99.90
5560;DHT22;2803;47.916;8.074;2023-02-28T13:42:34;1.90;99.90
5560;DHT22;2803;47.916;8.074;2023-02-28T13:45:21;1.80;99.90
5560;DHT22;2803;47.916;8.074;2023-02-28T13:47:53;2.60;99.90
5560;DHT22;2803;47.916;8.074;2023-02-28T13:50:23;2.50;99.90
5560;DHT22;2803;47.916;8.074;2023-02-28T13:53:02;2.30;99.90
5560;DHT22;2803;47.916;8.074;2023-02-28T13:55:36;2.10;99.90
5560;DHT22;2803;47.916;8.074;2023-02-28T13:58:24;2.00;99.90
5560;DHT22;2803;47.916;8.074;2023-02-28T14:01:07;1.80;99.90
5560;DHT22;2803;47.916;8.074;2023-02-28T14:04:00;2.00;99.90
5560;DHT22;2803;47.916;8.074;2023-02-28T14:06:33;1.80;99.90
5560;DHT22;2803;47.916;8.074;2023-02-28T14:09:15;2.10;99.90
5560;DHT22;2803;47.916;8.074;2023-02-28T14:11:44;1.70;99.90
5560;DHT22;2803;47.916;8.074;2023-02-28T14:17:17;2.00;99.90
5560;DHT22;2803;47.916;8.074;2023-02-28T14:19:45;2.00;99.90
5560;DHT22;2803;47.916;8.074;2023-02-28T14:22:36;2.00;99.90
5560;DHT22;2803;47.916;8.074;2023-02-28T14:25:13;2.10;99.90
5560;DHT22;2803;47.916;8.074;2023-02-28T14:27:48;2.00;99.90
5560;DHT22;2803;47.916;8.074;2023-02-28T14:33:22;1.90;99.90
5560;DHT22;2803;47.916;8.074;2023-02-28T14:36:01;1.90;99.90
5560;DHT22;2803;47.916;8.074;2023-02-28T14:38:32;1.50;99.90
5560;DHT22;2803;47.916;8.074;2023-02-28T14:41:03;1.50;99.90
5560;DHT22;2803;47.916;8.074;2023-02-28T14:43:31;1.90;99.90
5560;DHT22;2803;47.916;8.074;2023-02-28T14:46:02;2.20;99.90
5560;DHT22;2803;47.916;8.074;2023-02-28T14:48:32;2.70;99.90
5560;DHT22;2803;47.916;8.074;2023-02-28T14:51:02;2.50;99.90
5560;DHT22;2803;47.916;8.074;2023-02-28T14:53:34;1.80;99.90
5560;DHT22;2803;47.916;8.074;2023-02-28T14:56:03;2.10;99.90
5560;DHT22;2803;47.916;8.074;2023-02-28T14:58:32;2.00;99.90
5560;DHT22;2803;47.916;8.074;2023-02-28T15:01:01;1.80;99.90
5560;DHT22;2803;47.916;8.074;2023-02-28T15:03:33;1.80;99.90
5560;DHT22;2803;47.916;8.074;2023-02-28T15:06:03;1.80;99.90
5560;DHT22;2803;47.916;8.074;2023-02-28T15:08:30;1.90;99.90
5560;DHT22;2803;47.916;8.074;2023-02-28T15:11:02;1.30;99.90
5560;DHT22;2803;47.916;8.074;2023-02-28T15:13:36;1.50;99.90
5560;DHT22;2803;47.916;8.074;2023-02-28T15:16:05;1.90;99.90
5560;DHT22;2803;47.916;8.074;2023-02-28T15:18:43;1.60;99.90
5560;DHT22;2803;47.916;8.074;2023-02-28T15:21:13;1.60;99.90
5560;DHT22;2803;47.916;8.074;2023-02-28T15:23:43;1.70;99.90
5560;DHT22;2803;47.916;8.074;2023-02-28T15:26:14;1.60;99.90
5560;DHT22;2803;47.916;8.074;2023-02-28T15:28:42;1.60;99.90
5560;DHT22;2803;47.916;8.074;2023-02-28T15:31:20;2.00;99.90
5560;DHT22;2803;47.916;8.074;2023-02-28T15:33:55;1.60;99.90
5560;DHT22;2803;47.916;8.074;2023-02-28T15:36:25;1.90;99.90
5560;DHT22;2803;47.916;8.074;2023-02-28T15:38:53;1.80;99.90
5560;DHT22;2803;47.916;8.074;2023-02-28T15:41:25;2.10;99.90
5560;DHT22;2803;47.916;8.074;2023-02-28T15:44:16;2.20;99.90
5560;DHT22;2803;47.916;8.074;2023-02-28T15:46:45;2.10;99.90
5560;DHT22;2803;47.916;8.074;2023-02-28T15:49:21;2.10;99.90
5560;DHT22;2803;47.916;8.074;2023-02-28T15:51:50;2.20;99.90
5560;DHT22;2803;47.916;8.074;2023-02-28T15:54:20;2.30;99.90
5560;DHT22;2803;47.916;8.074;2023-02-28T15:56:51;2.60;99.90
5560;DHT22;2803;47.916;8.074;2023-02-28T15:59:21;2.80;99.90
5560;DHT22;2803;47.916;8.074;2023-02-28T16:02:03;2.60;99.90
5560;DHT22;2803;47.916;8.074;2023-02-28T16:04:56;2.80;99.90
5560;DHT22;2803;47.916;8.074;2023-02-28T16:07:23;2.60;99.90
5560;DHT22;2803;47.916;8.074;2023-02-28T16:09:50;2.70;99.90
5560;DHT22;2803;47.916;8.074;2023-02-28T16:12:24;2.40;99.90
5560;DHT22;2803;47.916;8.074;2023-02-28T16:14:52;2.90;99.90
5560;DHT22;2803;47.916;8.074;2023-02-28T16:17:21;3.10;99.90
5560;DHT22;2803;47.916;8.074;2023-02-28T16:19:48;2.90;99.90
5560;DHT22;2803;47.916;8.074;2023-02-28T16:22:16;3.00;99.90
5560;DHT22;2803;47.916;8.074;2023-02-28T16:24:43;2.90;99.90
5560;DHT22;2803;47.916;8.074;2023-02-28T16:27:17;3.10;99.90
5560;DHT22;2803;47.916;8.074;2023-02-28T16:29:44;3.30;99.90
5560;DHT22;2803;47.916;8.074;2023-02-28T16:32:12;3.80;99.90
5560;DHT22;2803;47.916;8.074;2023-02-28T16:34:40;3.90;99.90
5560;DHT22;2803;47.916;8.074;2023-02-28T16:37:11;3.80;99.90
5560;DHT22;2803;47.916;8.074;2023-02-28T16:39:39;4.10;99.90
5560;DHT22;2803;47.916;8.074;2023-02-28T16:42:08;4.10;99.90
5560;DHT22;2803;47.916;8.074;2023-02-28T16:44:37;3.80;99.90
5560;DHT22;2803;47.916;8.074;2023-02-28T16:47:04;4.00;99.90
5560;DHT22;2803;47.916;8.074;2023-02-28T16:49:31;4.10;99.90
5560;DHT22;2803;47.916;8.074;2023-02-28T16:51:57;4.00;99.90
5560;DHT22;2803;47.916;8.074;2023-02-28T16:54:24;4.00;99.90
5560;DHT22;2803;47.916;8.074;2023-02-28T16:56:53;4.10;99.90
5560;DHT22;2803;47.916;8.074;2023-02-28T16:59:22;4.20;99.90